sensor_id;sensor_type;location;lat;lon;timestamp;P1;durP1;ratioP1;P2;durP2;ratioP2
14619;SDS011;32125;48.518;9.050;2023-06-04T00:01:35;11.57;;;9.70;;
14619;SDS011;32125;48.518;9.050;2023-06-04T00:04:01;12.23;;;9.77;;
14619;SDS011;32125;48.518;9.050;2023-06-04T00:06:27;13.03;;;10.33;;
14619;SDS011;32125;48.518;9.050;2023-06-04T00:08:55;13.63;;;10.50;;
14619;SDS011;32125;48.518;9.050;2023-06-04T00:11:21;13.17;;;9.10;;
14619;SDS011;32125;48.518;9.050;2023-06-04T00:13:47;13.57;;;9.93;;
14619;SDS011;32125;48.518;9.050;2023-06-04T00:16:14;10.27;;;9.23;;
14619;SDS011;32125;48.518;9.050;2023-06-04T00:18:39;11.43;;;8.67;;
14619;SDS011;32125;48.518;9.050;2023-06-04T00:21:05;11.87;;;8.97;;
14619;SDS011;32125;48.518;9.050;2023-06-04T00:23:34;12.03;;;10.30;;
14619;SDS011;32125;48.518;9.050;2023-06-04T00:26:00;12.30;;;10.60;;
14619;SDS011;32125;48.518;9.050;2023-06-04T00:28:31;11.77;;;9.17;;
14619;SDS011;32125;48.518;9.050;2023-06-04T00:30:57;10.63;;;9.53;;
14619;SDS011;32125;48.518;9.050;2023-06-04T00:33:25;10.43;;;9.10;;
14619;SDS011;32125;48.518;9.050;2023-06-04T00:35:53;10.07;;;9.07;;
14619;SDS011;32125;48.518;9.050;2023-06-04T00:38:22;11.03;;;9.83;;
14619;SDS011;32125;48.518;9.050;2023-06-04T00:40:48;11.50;;;10.30;;
14619;SDS011;32125;48.518;9.050;2023-06-04T00:43:14;11.43;;;10.03;;
14619;SDS011;32125;48.518;9.050;2023-06-04T00:45:40;12.30;;;11.00;;
14619;SDS011;32125;48.518;9.050;2023-06-04T00:48:09;15.60;;;11.23;;
14619;SDS011;32125;48.518;9.050;2023-06-04T00:50:36;15.40;;;11.90;;
14619;SDS011;32125;48.518;9.050;2023-06-04T00:53:03;11.77;;;10.47;;
14619;SDS011;32125;48.518;9.050;2023-06-04T00:55:30;14.70;;;11.03;;
14619;SDS011;32125;48.518;9.050;2023-06-04T00:57:56;11.07;;;9.93;;
14619;SDS011;32125;48.518;9.050;2023-06-04T01:00:22;11.73;;;10.03;;
14619;SDS011;32125;48.518;9.050;2023-06-04T01:02:49;10.77;;;9.57;;
14619;SDS011;32125;48.518;9.050;2023-06-04T01:08:00;12.40;;;10.73;;
14619;SDS011;32125;48.518;9.050;2023-06-04T01:10:26;10.60;;;9.50;;
14619;SDS011;32125;48.518;9.050;2023-06-04T01:12:58;10.73;;;9.63;;
14619;SDS011;32125;48.518;9.050;2023-06-04T01:15:26;12.20;;;10.33;;
14619;SDS011;32125;48.518;9.050;2023-06-04T01:17:54;11.63;;;9.93;;
14619;SDS011;32125;48.518;9.050;2023-06-04T01:25:24;13.67;;;10.30;;
14619;SDS011;32125;48.518;9.050;2023-06-04T01:27:53;11.50;;;10.30;;
14619;SDS011;32125;48.518;9.050;2023-06-04T01:30:28;11.63;;;9.90;;
14619;SDS011;32125;48.518;9.050;2023-06-04T01:32:56;12.13;;;9.73;;
14619;SDS011;32125;48.518;9.050;2023-06-04T01:35:26;13.13;;;10.33;;
14619;SDS011;32125;48.518;9.050;2023-06-04T01:37:53;13.93;;;10.67;;
14619;SDS011;32125;48.518;9.050;2023-06-04T01:40:20;12.97;;;9.93;;
14619;SDS011;32125;48.518;9.050;2023-06-04T01:42:46;13.03;;;9.57;;
14619;SDS011;32125;48.518;9.050;2023-06-04T01:45:12;11.83;;;9.67;;
14619;SDS011;32125;48.518;9.050;2023-06-04T01:47:38;11.50;;;9.40;;
14619;SDS011;32125;48.518;9.050;2023-06-04T01:50:05;12.73;;;10.07;;
14619;SDS011;32125;48.518;9.050;2023-06-04T01:52:34;11.73;;;9.50;;
14619;SDS011;32125;48.518;9.050;2023-06-04T01:55:01;15.67;;;10.77;;
14619;SDS011;32125;48.518;9.050;2023-06-04T01:57:27;11.10;;;9.63;;
14619;SDS011;32125;48.518;9.050;2023-06-04T01:59:53;10.97;;;9.80;;
14619;SDS011;32125;48.518;9.050;2023-06-04T02:02:19;11.03;;;9.83;;
14619;SDS011;32125;48.518;9.050;2023-06-04T02:04:48;12.10;;;10.17;;
14619;SDS011;32125;48.518;9.050;2023-06-04T02:07:16;12.73;;;10.43;;
14619;SDS011;32125;48.518;9.050;2023-06-04T02:09:45;11.97;;;10.67;;
14619;SDS011;32125;48.518;9.050;2023-06-04T02:12:11;11.70;;;9.77;;
14619;SDS011;32125;48.518;9.050;2023-06-04T02:14:41;12.87;;;9.67;;
14619;SDS011;32125;48.518;9.050;2023-06-04T02:17:10;10.87;;;9.67;;
14619;SDS011;32125;48.518;9.050;2023-06-04T02:19:40;14.93;;;10.67;;
14619;SDS011;32125;48.518;9.050;2023-06-04T02:22:12;13.00;;;10.73;;
14619;SDS011;32125;48.518;9.050;2023-06-04T02:24:38;12.67;;;10.53;;
14619;SDS011;32125;48.518;9.050;2023-06-04T02:27:07;12.17;;;10.43;;
14619;SDS011;32125;48.518;9.050;2023-06-04T02:29:33;13.23;;;9.97;;
14619;SDS011;32125;48.518;9.050;2023-06-04T02:31:59;13.07;;;10.47;;
14619;SDS011;32125;48.518;9.050;2023-06-04T02:34:25;12.27;;;10.83;;
14619;SDS011;32125;48.518;9.050;2023-06-04T02:36:55;12.57;;;10.70;;
14619;SDS011;32125;48.518;9.050;2023-06-04T02:39:21;11.73;;;10.53;;
14619;SDS011;32125;48.518;9.050;2023-06-04T02:41:47;11.73;;;10.30;;
14619;SDS011;32125;48.518;9.050;2023-06-04T02:44:18;13.57;;;10.50;;
14619;SDS011;32125;48.518;9.050;2023-06-04T02:46:44;11.90;;;10.57;;
14619;SDS011;32125;48.518;9.050;2023-06-04T02:49:10;11.90;;;10.13;;
14619;SDS011;32125;48.518;9.050;2023-06-04T02:51:42;12.97;;;10.77;;
14619;SDS011;32125;48.518;9.050;2023-06-04T02:54:09;12.60;;;10.67;;
14619;SDS011;32125;48.518;9.050;2023-06-04T02:56:36;12.20;;;10.40;;
14619;SDS011;32125;48.518;9.050;2023-06-04T02:59:02;11.50;;;10.10;;
14619;SDS011;32125;48.518;9.050;2023-06-04T03:01:29;12.90;;;10.87;;
14619;SDS011;32125;48.518;9.050;2023-06-04T03:03:55;12.20;;;10.40;;
14619;SDS011;32125;48.518;9.050;2023-06-04T03:06:22;13.73;;;10.60;;
14619;SDS011;32125;48.518;9.050;2023-06-04T03:08:48;16.10;;;10.80;;
14619;SDS011;32125;48.518;9.050;2023-06-04T03:11:19;14.80;;;11.43;;
14619;SDS011;32125;48.518;9.050;2023-06-04T03:13:46;11.97;;;10.70;;
14619;SDS011;32125;48.518;9.050;2023-06-04T03:16:12;13.63;;;10.73;;
14619;SDS011;32125;48.518;9.050;2023-06-04T03:18:39;13.07;;;11.13;;
14619;SDS011;32125;48.518;9.050;2023-06-04T03:21:06;14.47;;;11.40;;
14619;SDS011;32125;48.518;9.050;2023-06-04T03:23:32;14.33;;;11.40;;
14619;SDS011;32125;48.518;9.050;2023-06-04T03:25:59;13.33;;;11.30;;
14619;SDS011;32125;48.518;9.050;2023-06-04T03:28:25;12.93;;;11.47;;
14619;SDS011;32125;48.518;9.050;2023-06-04T03:30:53;12.83;;;10.57;;
14619;SDS011;32125;48.518;9.050;2023-06-04T03:33:21;12.23;;;10.93;;
14619;SDS011;32125;48.518;9.050;2023-06-04T03:35:47;13.87;;;10.93;;
14619;SDS011;32125;48.518;9.050;2023-06-04T03:38:16;13.63;;;10.77;;
14619;SDS011;32125;48.518;9.050;2023-06-04T03:40:45;13.37;;;10.90;;
14619;SDS011;32125;48.518;9.050;2023-06-04T03:43:11;12.17;;;10.70;;
14619;SDS011;32125;48.518;9.050;2023-06-04T03:45:38;14.70;;;11.27;;
14619;SDS011;32125;48.518;9.050;2023-06-04T03:48:04;12.13;;;10.83;;
14619;SDS011;32125;48.518;9.050;2023-06-04T03:50:30;13.20;;;11.40;;
14619;SDS011;32125;48.518;9.050;2023-06-04T03:52:57;12.13;;;10.83;;
14619;SDS011;32125;48.518;9.050;2023-06-04T03:55:26;14.57;;;10.93;;
14619;SDS011;32125;48.518;9.050;2023-06-04T03:57:52;15.00;;;11.23;;
14619;SDS011;32125;48.518;9.050;2023-06-04T04:00:18;13.27;;;10.83;;
14619;SDS011;32125;48.518;9.050;2023-06-04T04:02:47;12.23;;;11.03;;
14619;SDS011;32125;48.518;9.050;2023-06-04T04:05:15;13.47;;;10.70;;
14619;SDS011;32125;48.518;9.050;2023-06-04T04:07:42;13.27;;;11.17;;
14619;SDS011;32125;48.518;9.050;2023-06-04T04:10:09;13.53;;;10.43;;
14619;SDS011;32125;48.518;9.050;2023-06-04T04:12:36;13.70;;;10.30;;
14619;SDS011;32125;48.518;9.050;2023-06-04T04:15:03;11.43;;;10.00;;
14619;SDS011;32125;48.518;9.050;2023-06-04T04:17:29;12.83;;;10.27;;
14619;SDS011;32125;48.518;9.050;2023-06-04T04:19:55;11.07;;;9.97;;
14619;SDS011;32125;48.518;9.050;2023-06-04T04:22:21;11.50;;;10.37;;
14619;SDS011;32125;48.518;9.050;2023-06-04T04:24:47;13.87;;;10.70;;
14619;SDS011;32125;48.518;9.050;2023-06-04T04:27:13;13.37;;;10.57;;
14619;SDS011;32125;48.518;9.050;2023-06-04T04:29:40;12.57;;;10.27;;
14619;SDS011;32125;48.518;9.050;2023-06-04T04:32:08;12.87;;;10.40;;
14619;SDS011;32125;48.518;9.050;2023-06-04T04:34:37;14.90;;;10.40;;
14619;SDS011;32125;48.518;9.050;2023-06-04T04:37:08;11.63;;;10.43;;
14619;SDS011;32125;48.518;9.050;2023-06-04T04:39:34;14.70;;;10.53;;
14619;SDS011;32125;48.518;9.050;2023-06-04T04:42:01;12.43;;;10.53;;
14619;SDS011;32125;48.518;9.050;2023-06-04T04:44:27;11.77;;;10.20;;
14619;SDS011;32125;48.518;9.050;2023-06-04T04:46:53;12.57;;;10.73;;
14619;SDS011;32125;48.518;9.050;2023-06-04T04:49:19;12.97;;;10.47;;
14619;SDS011;32125;48.518;9.050;2023-06-04T04:51:45;14.10;;;10.37;;
14619;SDS011;32125;48.518;9.050;2023-06-04T04:54:11;12.93;;;10.57;;
14619;SDS011;32125;48.518;9.050;2023-06-04T04:56:37;16.07;;;10.77;;
14619;SDS011;32125;48.518;9.050;2023-06-04T04:59:05;13.10;;;10.23;;
14619;SDS011;32125;48.518;9.050;2023-06-04T05:01:31;12.23;;;10.47;;
14619;SDS011;32125;48.518;9.050;2023-06-04T05:03:57;15.70;;;11.40;;
14619;SDS011;32125;48.518;9.050;2023-06-04T05:06:23;11.07;;;9.97;;
14619;SDS011;32125;48.518;9.050;2023-06-04T05:08:51;13.73;;;10.07;;
14619;SDS011;32125;48.518;9.050;2023-06-04T05:11:17;11.60;;;10.40;;
14619;SDS011;32125;48.518;9.050;2023-06-04T05:13:43;11.93;;;10.70;;
14619;SDS011;32125;48.518;9.050;2023-06-04T05:16:09;11.90;;;10.60;;
14619;SDS011;32125;48.518;9.050;2023-06-04T05:18:39;12.33;;;10.67;;
14619;SDS011;32125;48.518;9.050;2023-06-04T05:21:09;11.43;;;10.27;;
14619;SDS011;32125;48.518;9.050;2023-06-04T05:23:37;11.30;;;9.83;;
14619;SDS011;32125;48.518;9.050;2023-06-04T05:26:03;11.10;;;9.90;;
14619;SDS011;32125;48.518;9.050;2023-06-04T05:28:35;14.20;;;10.83;;
14619;SDS011;32125;48.518;9.050;2023-06-04T05:31:01;13.43;;;10.83;;
14619;SDS011;32125;48.518;9.050;2023-06-04T05:33:27;12.57;;;10.40;;
14619;SDS011;32125;48.518;9.050;2023-06-04T05:35:53;11.27;;;10.03;;
14619;SDS011;32125;48.518;9.050;2023-06-04T05:38:22;15.30;;;10.60;;
14619;SDS011;32125;48.518;9.050;2023-06-04T05:40:50;12.07;;;10.47;;
14619;SDS011;32125;48.518;9.050;2023-06-04T05:43:17;11.33;;;10.03;;
14619;SDS011;32125;48.518;9.050;2023-06-04T05:45:43;11.80;;;10.13;;
14619;SDS011;32125;48.518;9.050;2023-06-04T05:48:10;11.70;;;9.60;;
14619;SDS011;32125;48.518;9.050;2023-06-04T05:50:36;11.03;;;9.40;;
14619;SDS011;32125;48.518;9.050;2023-06-04T05:53:02;10.53;;;9.10;;
14619;SDS011;32125;48.518;9.050;2023-06-04T05:55:28;9.90;;;8.90;;
14619;SDS011;32125;48.518;9.050;2023-06-04T05:57:54;11.70;;;9.07;;
14619;SDS011;32125;48.518;9.050;2023-06-04T06:00:21;12.57;;;9.07;;
14619;SDS011;32125;48.518;9.050;2023-06-04T06:02:49;12.63;;;8.83;;
14619;SDS011;32125;48.518;9.050;2023-06-04T06:05:15;9.63;;;8.30;;
14619;SDS011;32125;48.518;9.050;2023-06-04T06:07:44;9.73;;;8.73;;
14619;SDS011;32125;48.518;9.050;2023-06-04T06:10:11;9.80;;;8.27;;
14619;SDS011;32125;48.518;9.050;2023-06-04T06:12:39;9.97;;;8.07;;
14619;SDS011;32125;48.518;9.050;2023-06-04T06:15:08;9.63;;;7.77;;
14619;SDS011;32125;48.518;9.050;2023-06-04T06:17:35;9.23;;;7.50;;
14619;SDS011;32125;48.518;9.050;2023-06-04T06:20:01;7.60;;;6.50;;
14619;SDS011;32125;48.518;9.050;2023-06-04T06:22:32;7.83;;;6.07;;
14619;SDS011;32125;48.518;9.050;2023-06-04T06:24:59;6.10;;;5.50;;
14619;SDS011;32125;48.518;9.050;2023-06-04T06:27:25;6.30;;;4.90;;
14619;SDS011;32125;48.518;9.050;2023-06-04T06:29:53;6.03;;;4.47;;
14619;SDS011;32125;48.518;9.050;2023-06-04T06:32:19;7.32;;;5.20;;
14619;SDS011;32125;48.518;9.050;2023-06-04T06:34:45;6.18;;;4.30;;
14619;SDS011;32125;48.518;9.050;2023-06-04T06:37:11;9.13;;;4.45;;
14619;SDS011;32125;48.518;9.050;2023-06-04T06:39:37;5.45;;;3.97;;
14619;SDS011;32125;48.518;9.050;2023-06-04T06:42:05;4.15;;;3.63;;
14619;SDS011;32125;48.518;9.050;2023-06-04T06:44:31;3.58;;;3.22;;
14619;SDS011;32125;48.518;9.050;2023-06-04T06:46:57;3.95;;;2.85;;
14619;SDS011;32125;48.518;9.050;2023-06-04T06:49:22;4.93;;;3.22;;
14619;SDS011;32125;48.518;9.050;2023-06-04T06:51:48;4.55;;;2.95;;
14619;SDS011;32125;48.518;9.050;2023-06-04T06:54:16;3.97;;;2.90;;
14619;SDS011;32125;48.518;9.050;2023-06-04T06:56:48;3.83;;;3.00;;
14619;SDS011;32125;48.518;9.050;2023-06-04T06:59:16;3.97;;;3.00;;
14619;SDS011;32125;48.518;9.050;2023-06-04T07:01:42;4.05;;;2.80;;
14619;SDS011;32125;48.518;9.050;2023-06-04T07:04:12;4.20;;;2.80;;
14619;SDS011;32125;48.518;9.050;2023-06-04T07:06:38;5.45;;;2.88;;
14619;SDS011;32125;48.518;9.050;2023-06-04T07:09:04;3.05;;;2.72;;
14619;SDS011;32125;48.518;9.050;2023-06-04T07:11:31;4.40;;;2.90;;
14619;SDS011;32125;48.518;9.050;2023-06-04T07:13:59;4.53;;;2.67;;
14619;SDS011;32125;48.518;9.050;2023-06-04T07:16:27;2.40;;;2.20;;
14619;SDS011;32125;48.518;9.050;2023-06-04T07:18:53;2.97;;;2.53;;
14619;SDS011;32125;48.518;9.050;2023-06-04T07:21:19;3.80;;;2.78;;
14619;SDS011;32125;48.518;9.050;2023-06-04T07:23:47;3.63;;;2.40;;
14619;SDS011;32125;48.518;9.050;2023-06-04T07:26:15;2.88;;;2.38;;
14619;SDS011;32125;48.518;9.050;2023-06-04T07:28:42;2.60;;;2.40;;
14619;SDS011;32125;48.518;9.050;2023-06-04T07:31:08;3.97;;;2.25;;
14619;SDS011;32125;48.518;9.050;2023-06-04T07:33:35;8.02;;;2.50;;
14619;SDS011;32125;48.518;9.050;2023-06-04T07:36:17;4.35;;;2.63;;
14619;SDS011;32125;48.518;9.050;2023-06-04T07:38:43;4.20;;;2.35;;
14619;SDS011;32125;48.518;9.050;2023-06-04T07:41:11;3.45;;;2.30;;
14619;SDS011;32125;48.518;9.050;2023-06-04T07:43:40;2.50;;;2.30;;
14619;SDS011;32125;48.518;9.050;2023-06-04T07:46:06;3.55;;;2.22;;
14619;SDS011;32125;48.518;9.050;2023-06-04T07:48:34;4.47;;;2.47;;
14619;SDS011;32125;48.518;9.050;2023-06-04T07:51:01;4.68;;;2.20;;
14619;SDS011;32125;48.518;9.050;2023-06-04T07:53:28;4.97;;;2.25;;
14619;SDS011;32125;48.518;9.050;2023-06-04T07:55:55;3.45;;;2.42;;
14619;SDS011;32125;48.518;9.050;2023-06-04T07:58:24;5.13;;;2.63;;
14619;SDS011;32125;48.518;9.050;2023-06-04T08:00:50;3.38;;;2.30;;
14619;SDS011;32125;48.518;9.050;2023-06-04T08:03:16;2.92;;;2.47;;
14619;SDS011;32125;48.518;9.050;2023-06-04T08:05:43;3.53;;;2.28;;
14619;SDS011;32125;48.518;9.050;2023-06-04T08:08:09;3.15;;;2.40;;
14619;SDS011;32125;48.518;9.050;2023-06-04T08:10:38;3.35;;;2.38;;
14619;SDS011;32125;48.518;9.050;2023-06-04T08:13:04;5.07;;;2.28;;
14619;SDS011;32125;48.518;9.050;2023-06-04T08:15:33;3.63;;;2.40;;
14619;SDS011;32125;48.518;9.050;2023-06-04T08:18:02;2.60;;;2.40;;
14619;SDS011;32125;48.518;9.050;2023-06-04T08:20:30;2.42;;;2.22;;
14619;SDS011;32125;48.518;9.050;2023-06-04T08:22:59;2.47;;;2.20;;
14619;SDS011;32125;48.518;9.050;2023-06-04T08:25:25;4.60;;;2.42;;
14619;SDS011;32125;48.518;9.050;2023-06-04T08:27:56;3.40;;;2.60;;
14619;SDS011;32125;48.518;9.050;2023-06-04T08:30:22;4.47;;;2.42;;
14619;SDS011;32125;48.518;9.050;2023-06-04T08:32:52;4.57;;;2.42;;
14619;SDS011;32125;48.518;9.050;2023-06-04T08:35:18;4.15;;;2.40;;
14619;SDS011;32125;48.518;9.050;2023-06-04T08:37:48;3.50;;;2.53;;
14619;SDS011;32125;48.518;9.050;2023-06-04T08:40:14;5.13;;;2.40;;
14619;SDS011;32125;48.518;9.050;2023-06-04T08:42:41;4.07;;;2.38;;
14619;SDS011;32125;48.518;9.050;2023-06-04T08:45:10;2.78;;;2.55;;
14619;SDS011;32125;48.518;9.050;2023-06-04T08:47:40;2.67;;;2.22;;
14619;SDS011;32125;48.518;9.050;2023-06-04T08:50:09;3.20;;;2.50;;
14619;SDS011;32125;48.518;9.050;2023-06-04T08:52:37;2.55;;;2.33;;
14619;SDS011;32125;48.518;9.050;2023-06-04T08:55:04;4.28;;;2.50;;
14619;SDS011;32125;48.518;9.050;2023-06-04T08:57:33;2.97;;;2.20;;
14619;SDS011;32125;48.518;9.050;2023-06-04T09:00:01;2.50;;;2.20;;
14619;SDS011;32125;48.518;9.050;2023-06-04T09:02:29;3.15;;;2.47;;
14619;SDS011;32125;48.518;9.050;2023-06-04T09:04:59;3.47;;;2.17;;
14619;SDS011;32125;48.518;9.050;2023-06-04T09:07:27;3.75;;;2.35;;
14619;SDS011;32125;48.518;9.050;2023-06-04T09:09:53;3.00;;;2.40;;
14619;SDS011;32125;48.518;9.050;2023-06-04T09:12:23;3.05;;;2.58;;
14619;SDS011;32125;48.518;9.050;2023-06-04T09:14:54;3.17;;;2.60;;
14619;SDS011;32125;48.518;9.050;2023-06-04T09:17:24;2.65;;;2.20;;
14619;SDS011;32125;48.518;9.050;2023-06-04T09:19:50;3.28;;;2.42;;
14619;SDS011;32125;48.518;9.050;2023-06-04T09:22:19;2.97;;;2.40;;
14619;SDS011;32125;48.518;9.050;2023-06-04T09:24:46;4.82;;;2.50;;
14619;SDS011;32125;48.518;9.050;2023-06-04T09:27:18;2.55;;;2.35;;
14619;SDS011;32125;48.518;9.050;2023-06-04T09:29:50;4.35;;;2.63;;
14619;SDS011;32125;48.518;9.050;2023-06-04T09:32:22;4.57;;;2.45;;
14619;SDS011;32125;48.518;9.050;2023-06-04T09:34:49;3.83;;;2.50;;
14619;SDS011;32125;48.518;9.050;2023-06-04T09:37:16;5.63;;;2.53;;
14619;SDS011;32125;48.518;9.050;2023-06-04T09:39:43;4.70;;;2.50;;
14619;SDS011;32125;48.518;9.050;2023-06-04T09:42:09;5.15;;;2.50;;
14619;SDS011;32125;48.518;9.050;2023-06-04T09:44:43;2.80;;;2.60;;
14619;SDS011;32125;48.518;9.050;2023-06-04T09:47:12;4.00;;;2.83;;
14619;SDS011;32125;48.518;9.050;2023-06-04T09:49:45;5.15;;;2.40;;
14619;SDS011;32125;48.518;9.050;2023-06-04T09:52:12;3.00;;;2.53;;
14619;SDS011;32125;48.518;9.050;2023-06-04T09:54:40;4.25;;;2.65;;
14619;SDS011;32125;48.518;9.050;2023-06-04T09:57:15;5.03;;;2.95;;
14619;SDS011;32125;48.518;9.050;2023-06-04T09:59:49;5.90;;;2.60;;
14619;SDS011;32125;48.518;9.050;2023-06-04T10:02:21;4.18;;;2.65;;
14619;SDS011;32125;48.518;9.050;2023-06-04T10:04:49;4.95;;;2.70;;
14619;SDS011;32125;48.518;9.050;2023-06-04T10:07:22;5.05;;;2.78;;
14619;SDS011;32125;48.518;9.050;2023-06-04T10:09:49;3.67;;;2.80;;
14619;SDS011;32125;48.518;9.050;2023-06-04T10:12:20;4.18;;;2.67;;
14619;SDS011;32125;48.518;9.050;2023-06-04T10:14:56;5.18;;;2.60;;
14619;SDS011;32125;48.518;9.050;2023-06-04T10:17:28;4.07;;;2.53;;
14619;SDS011;32125;48.518;9.050;2023-06-04T10:19:58;3.92;;;2.63;;
14619;SDS011;32125;48.518;9.050;2023-06-04T10:22:29;4.75;;;2.83;;
14619;SDS011;32125;48.518;9.050;2023-06-04T10:24:58;3.92;;;2.40;;
14619;SDS011;32125;48.518;9.050;2023-06-04T10:27:25;3.10;;;2.80;;
14619;SDS011;32125;48.518;9.050;2023-06-04T10:29:55;2.72;;;2.53;;
14619;SDS011;32125;48.518;9.050;2023-06-04T10:32:21;6.55;;;3.30;;
14619;SDS011;32125;48.518;9.050;2023-06-04T10:34:47;2.97;;;2.63;;
14619;SDS011;32125;48.518;9.050;2023-06-04T10:37:21;2.83;;;2.38;;
14619;SDS011;32125;48.518;9.050;2023-06-04T10:39:59;7.25;;;2.80;;
14619;SDS011;32125;48.518;9.050;2023-06-04T10:42:25;5.88;;;2.97;;
14619;SDS011;32125;48.518;9.050;2023-06-04T10:44:52;3.60;;;2.97;;
14619;SDS011;32125;48.518;9.050;2023-06-04T10:47:22;4.28;;;2.78;;
14619;SDS011;32125;48.518;9.050;2023-06-04T10:49:52;3.85;;;2.72;;
14619;SDS011;32125;48.518;9.050;2023-06-04T10:52:18;6.45;;;2.42;;
14619;SDS011;32125;48.518;9.050;2023-06-04T10:54:49;3.10;;;2.50;;
14619;SDS011;32125;48.518;9.050;2023-06-04T10:57:20;4.38;;;2.72;;
14619;SDS011;32125;48.518;9.050;2023-06-04T11:00:00;4.78;;;3.15;;
14619;SDS011;32125;48.518;9.050;2023-06-04T11:02:30;4.13;;;2.78;;
14619;SDS011;32125;48.518;9.050;2023-06-04T11:07:40;3.35;;;2.88;;
14619;SDS011;32125;48.518;9.050;2023-06-04T11:10:10;5.00;;;2.80;;
14619;SDS011;32125;48.518;9.050;2023-06-04T11:12:46;7.88;;;3.17;;
14619;SDS011;32125;48.518;9.050;2023-06-04T11:15:13;3.75;;;2.90;;
14619;SDS011;32125;48.518;9.050;2023-06-04T11:17:53;4.43;;;3.10;;
14619;SDS011;32125;48.518;9.050;2023-06-04T11:20:21;5.13;;;3.25;;
14619;SDS011;32125;48.518;9.050;2023-06-04T11:22:54;3.67;;;3.38;;
14619;SDS011;32125;48.518;9.050;2023-06-04T11:25:24;6.22;;;3.50;;
14619;SDS011;32125;48.518;9.050;2023-06-04T11:27:57;3.58;;;3.28;;
14619;SDS011;32125;48.518;9.050;2023-06-04T11:30:24;4.68;;;2.97;;
14619;SDS011;32125;48.518;9.050;2023-06-04T11:32:50;3.88;;;3.58;;
14619;SDS011;32125;48.518;9.050;2023-06-04T11:35:22;4.03;;;3.20;;
14619;SDS011;32125;48.518;9.050;2023-06-04T11:37:54;5.13;;;3.03;;
14619;SDS011;32125;48.518;9.050;2023-06-04T11:40:21;6.70;;;3.42;;
14619;SDS011;32125;48.518;9.050;2023-06-04T11:42:53;4.97;;;3.05;;
14619;SDS011;32125;48.518;9.050;2023-06-04T11:45:22;4.45;;;3.42;;
14619;SDS011;32125;48.518;9.050;2023-06-04T11:47:54;6.25;;;3.03;;
14619;SDS011;32125;48.518;9.050;2023-06-04T11:50:23;4.70;;;3.10;;
14619;SDS011;32125;48.518;9.050;2023-06-04T11:52:53;5.05;;;2.95;;
14619;SDS011;32125;48.518;9.050;2023-06-04T11:55:19;3.67;;;3.30;;
14619;SDS011;32125;48.518;9.050;2023-06-04T11:57:46;4.80;;;3.30;;
14619;SDS011;32125;48.518;9.050;2023-06-04T12:00:14;4.30;;;3.38;;
14619;SDS011;32125;48.518;9.050;2023-06-04T12:02:51;5.65;;;3.30;;
14619;SDS011;32125;48.518;9.050;2023-06-04T12:05:21;4.20;;;3.47;;
14619;SDS011;32125;48.518;9.050;2023-06-04T12:07:51;3.53;;;3.20;;
14619;SDS011;32125;48.518;9.050;2023-06-04T12:10:18;4.47;;;3.67;;
14619;SDS011;32125;48.518;9.050;2023-06-04T12:12:46;4.35;;;3.60;;
14619;SDS011;32125;48.518;9.050;2023-06-04T12:15:18;3.92;;;3.63;;
14619;SDS011;32125;48.518;9.050;2023-06-04T12:17:51;5.00;;;3.58;;
14619;SDS011;32125;48.518;9.050;2023-06-04T12:20:18;5.88;;;3.50;;
14619;SDS011;32125;48.518;9.050;2023-06-04T12:22:57;4.80;;;3.35;;
14619;SDS011;32125;48.518;9.050;2023-06-04T12:25:29;5.30;;;3.72;;
14619;SDS011;32125;48.518;9.050;2023-06-04T12:27:55;4.88;;;3.35;;
14619;SDS011;32125;48.518;9.050;2023-06-04T12:30:21;4.85;;;3.60;;
14619;SDS011;32125;48.518;9.050;2023-06-04T12:32:50;5.75;;;3.80;;
14619;SDS011;32125;48.518;9.050;2023-06-04T12:35:16;6.97;;;3.50;;
14619;SDS011;32125;48.518;9.050;2023-06-04T12:37:42;3.85;;;3.50;;
14619;SDS011;32125;48.518;9.050;2023-06-04T12:40:09;5.80;;;3.85;;
14619;SDS011;32125;48.518;9.050;2023-06-04T12:42:34;5.75;;;3.53;;
14619;SDS011;32125;48.518;9.050;2023-06-04T12:45:00;4.30;;;3.85;;
14619;SDS011;32125;48.518;9.050;2023-06-04T12:47:26;6.07;;;3.95;;
14619;SDS011;32125;48.518;9.050;2023-06-04T12:49:55;4.40;;;3.97;;
14619;SDS011;32125;48.518;9.050;2023-06-04T12:52:21;4.80;;;4.03;;
14619;SDS011;32125;48.518;9.050;2023-06-04T12:54:47;4.90;;;4.05;;
14619;SDS011;32125;48.518;9.050;2023-06-04T12:57:14;5.63;;;4.22;;
14619;SDS011;32125;48.518;9.050;2023-06-04T12:59:40;6.50;;;4.15;;
14619;SDS011;32125;48.518;9.050;2023-06-04T13:02:07;6.10;;;4.10;;
14619;SDS011;32125;48.518;9.050;2023-06-04T13:04:33;6.82;;;3.90;;
14619;SDS011;32125;48.518;9.050;2023-06-04T13:06:59;4.97;;;4.10;;
14619;SDS011;32125;48.518;9.050;2023-06-04T13:09:26;4.30;;;3.47;;
14619;SDS011;32125;48.518;9.050;2023-06-04T13:11:56;4.22;;;3.80;;
14619;SDS011;32125;48.518;9.050;2023-06-04T13:14:22;4.63;;;3.75;;
14619;SDS011;32125;48.518;9.050;2023-06-04T13:16:49;5.10;;;4.03;;
14619;SDS011;32125;48.518;9.050;2023-06-04T13:19:16;7.00;;;4.20;;
14619;SDS011;32125;48.518;9.050;2023-06-04T13:21:46;4.18;;;3.78;;
14619;SDS011;32125;48.518;9.050;2023-06-04T13:24:12;5.82;;;4.07;;
14619;SDS011;32125;48.518;9.050;2023-06-04T13:26:38;5.10;;;3.92;;
14619;SDS011;32125;48.518;9.050;2023-06-04T13:29:04;4.50;;;3.92;;
14619;SDS011;32125;48.518;9.050;2023-06-04T13:31:30;5.32;;;3.92;;
14619;SDS011;32125;48.518;9.050;2023-06-04T13:33:58;4.72;;;3.83;;
14619;SDS011;32125;48.518;9.050;2023-06-04T13:36:24;7.22;;;4.03;;
14619;SDS011;32125;48.518;9.050;2023-06-04T13:38:50;3.90;;;3.60;;
14619;SDS011;32125;48.518;9.050;2023-06-04T13:41:19;5.40;;;3.90;;
14619;SDS011;32125;48.518;9.050;2023-06-04T13:43:48;6.70;;;3.92;;
14619;SDS011;32125;48.518;9.050;2023-06-04T13:46:16;5.00;;;3.90;;
14619;SDS011;32125;48.518;9.050;2023-06-04T13:48:42;5.07;;;3.90;;
14619;SDS011;32125;48.518;9.050;2023-06-04T13:51:10;6.97;;;3.85;;
14619;SDS011;32125;48.518;9.050;2023-06-04T13:53:36;4.43;;;3.95;;
14619;SDS011;32125;48.518;9.050;2023-06-04T13:56:02;4.00;;;3.70;;
14619;SDS011;32125;48.518;9.050;2023-06-04T13:58:28;6.38;;;4.20;;
14619;SDS011;32125;48.518;9.050;2023-06-04T14:00:54;5.90;;;3.72;;
14619;SDS011;32125;48.518;9.050;2023-06-04T14:03:20;5.45;;;3.72;;
14619;SDS011;32125;48.518;9.050;2023-06-04T14:05:46;4.45;;;3.72;;
14619;SDS011;32125;48.518;9.050;2023-06-04T14:08:12;3.75;;;3.45;;
14619;SDS011;32125;48.518;9.050;2023-06-04T14:10:41;6.75;;;4.30;;
14619;SDS011;32125;48.518;9.050;2023-06-04T14:13:08;5.15;;;3.78;;
14619;SDS011;32125;48.518;9.050;2023-06-04T14:15:33;5.63;;;4.00;;
14619;SDS011;32125;48.518;9.050;2023-06-04T14:18:00;6.68;;;3.80;;
14619;SDS011;32125;48.518;9.050;2023-06-04T14:20:26;5.78;;;4.30;;
14619;SDS011;32125;48.518;9.050;2023-06-04T14:22:52;6.03;;;4.20;;
14619;SDS011;32125;48.518;9.050;2023-06-04T14:25:21;5.38;;;4.22;;
14619;SDS011;32125;48.518;9.050;2023-06-04T14:27:47;6.13;;;3.90;;
14619;SDS011;32125;48.518;9.050;2023-06-04T14:30:13;4.50;;;4.10;;
14619;SDS011;32125;48.518;9.050;2023-06-04T14:32:39;4.57;;;4.10;;
14619;SDS011;32125;48.518;9.050;2023-06-04T14:35:07;6.70;;;4.03;;
14619;SDS011;32125;48.518;9.050;2023-06-04T14:37:39;5.03;;;3.70;;
14619;SDS011;32125;48.518;9.050;2023-06-04T14:40:06;6.72;;;3.80;;
14619;SDS011;32125;48.518;9.050;2023-06-04T14:42:32;4.93;;;3.70;;
14619;SDS011;32125;48.518;9.050;2023-06-04T14:44:58;5.88;;;3.72;;
14619;SDS011;32125;48.518;9.050;2023-06-04T14:47:27;5.63;;;3.90;;
14619;SDS011;32125;48.518;9.050;2023-06-04T14:49:55;6.32;;;3.90;;
14619;SDS011;32125;48.518;9.050;2023-06-04T14:52:23;3.92;;;3.53;;